EDT,Max TemperatureF,Mean TemperatureF,Min TemperatureF,Max Dew PointF,MeanDew PointF,Min DewpointF,Max Humidity, Mean Humidity, Min Humidity, Max Sea Level PressureIn, Mean Sea Level PressureIn, Min Sea Level PressureIn, Max VisibilityMiles, Mean VisibilityMiles, Min VisibilityMiles, Max Wind SpeedMPH, Mean Wind SpeedMPH, Max Gust SpeedMPH,PrecipitationIn, CloudCover, Events, WindDirDegrees
2013-9-1,82,74,66,68,64,61,83,73,54,29.87,29.84,29.80,10,7,2,10,1,,0.00,4,Thunderstorm,208
2013-9-2,78,72,66,66,64,59,83,76,61,29.85,29.78,29.70,10,8,2,8,1,,0.83,6,Thunderstorm,206
2013-9-3,73,65,57,61,58,52,88,73,53,29.83,29.76,29.69,10,10,4,8,2,,0.00,5,,248
2013-9-4,77,65,53,55,50,46,82,65,38,29.92,29.88,29.82,10,10,7,10,3,16,0.00,1,,249
2013-9-5,68,57,46,54,46,37,82,65,33,30.17,29.99,29.87,10,10,10,14,3,17,0.00,3,,345
2013-9-6,66,52,39,46,38,34,82,66,34,30.26,30.18,30.10,10,9,0,10,1,,0.06,1,,223
2013-9-7,75,58,42,55,46,36,81,65,41,30.10,29.99,29.87,10,10,5,9,2,,0.00,2,,211
2013-9-8,64,54,44,54,47,37,77,67,37,30.11,29.88,29.77,10,10,10,17,4,26,0.00,4,,327
2013-9-9,68,52,37,48,39,28,81,63,37,30.25,30.17,30.11,10,10,1,12,2,,0.00,0,,208
2013-9-10,75,62,50,64,55,43,83,76,69,30.13,30.07,30.01,10,8,0,13,1,,0.31,6,,207
2013-9-11,91,78,64,73,66,59,88,71,49,30.08,30.02,29.94,10,6,0,15,3,33,0.38,4,Thunderstorm,204
2013-9-12,78,72,66,68,64,61,94,83,69,29.96,29.82,29.66,10,6,1,12,3,22,3.21,4,Thunderstorm,202
2013-9-13,69,63,57,64,59,52,94,83,68,29.80,29.67,29.61,10,9,5,18,5,22,0.06,7,,333
2013-9-14,62,55,48,52,48,46,94,77,55,30.06,29.93,29.80,10,10,2,12,5,17,0.00,7,,330
2013-9-15,66,55,44,54,48,43,94,78,49,30.18,30.10,30.05,10,6,0,8,1,,0.00,3,,205
2013-9-16,64,54,42,52,45,34,94,73,52,30.28,30.09,30.01,10,10,10,18,4,24,0.02,3,,347
2013-9-17,60,46,33,45,36,30,93,73,39,30.44,30.36,30.28,10,10,1,13,2,18,0.00,0,,286
2013-9-18,71,55,39,52,42,36,93,76,35,30.33,30.24,30.14,10,6,0,7,1,,0.00,3,,203
2013-9-19,75,58,42,55,46,39,93,74,31,30.17,30.11,30.03,10,6,0,6,1,,0.00,3,,214
2013-9-20,78,62,46,57,49,45,93,78,34,30.11,30.04,29.98,10,5,0,10,2,,0.00,3,,208
2013-9-21,71,58,46,61,55,43,93,72,53,30.01,29.86,29.67,10,8,0,23,6,29,0.00,6,,184
2013-9-22,68,60,51,63,49,39,88,69,52,29.87,29.71,29.59,10,10,3,14,7,21,0.96,7,,279
2013-9-23,57,50,42,39,36,34,81,63,44,30.03,29.94,29.86,10,10,10,18,6,24,0.00,2,,349
2013-9-24,64,52,41,45,38,34,82,62,32,30.01,29.93,29.85,10,10,10,17,4,24,0.18,4,,339
2013-9-25,68,54,39,50,43,36,87,71,46,30.00,29.93,29.88,10,9,0,10,2,16,0.00,4,,359
2013-9-26,64,56,48,48,44,39,87,69,48,30.15,30.06,30.00,10,10,8,9,1,,0.00,5,,321
2013-9-27,62,54,46,48,47,43,87,76,55,30.30,30.23,30.15,10,9,0,7,1,,0.00,6,,326
2013-9-28,73,58,42,54,47,39,93,75,46,30.37,30.31,30.27,10,5,0,7,0,,0.00,5,,302
2013-9-29,71,56,42,52,44,39,93,72,41,30.27,30.19,30.10,10,6,0,6,1,,0.00,4,,242
2013-9-30,71,55,39,52,43,36,87,72,43,30.14,30.05,29.97,10,6,0,7,1,,0.00,2,,292